OKBO2: North Canadian River at Britton Rd at OKC, OK

Data processed at Tue May 21 2019 23:50


All information presented herein is the property of the government of the United States of America and may be revised or deleted at any time without prior notice.
Dissemination of this information without the expressed written consent of the Public Affairs Office, Tulsa District U.S. Army Corps of Engineers is strictly prohibited.
These data are gathered electronically and, as presented, have not undergone any form of quality control. These data are not guaranteed to be valid or correct.
Go to home page.
Go to station list.
Go to home page.

Upstream stations:

Downstream station:
Previous Day
Next Day
Current Day
    
SHEF ID:       OKBO2     North Canadian River at Britton
STATION TYPE:  

                STAGE  RIV-FLOW  WTR-TEMP   DIS-OXY   CONDUCT  BAT-LOAD
                   ft       cfs         F      mg/l   umho/cm      volt
              Ccp-Rev   Ccp-Rev   Ccp-Rev   Ccp-Rev   Ccp-Rev   Ccp-Rev
(US/Central)
05/21 00:00      8.73       855     68.16      7.92       569     12.71
05/21 01:00      8.88       915     67.28      7.89       511     12.71
05/21 02:00     13.84      5414     66.36      7.66       525     12.71
05/21 03:00     16.68     10820     67.50      7.30       599     12.65
05/21 04:00     17.20     11941     66.60      6.80       513     12.65
05/21 05:00     17.55     12733     65.88      6.84       434     12.65
05/21 06:00     18.52     14954     65.05      7.28       337     12.65
05/21 07:00     19.47     17222     64.54      7.53       281     12.65
05/21 08:00     19.45     17172     64.20      7.19       238     12.60
05/21 09:00     20.10     18823     64.08      6.89       202     12.83
05/21 10:00     20.50     19880     64.08      6.87       200     13.71
05/21 11:00     20.66     20293     64.15      6.87       202     13.94
05/21 12:00     20.80     20658     64.36      6.91       214     14.06
05/21 13:00     20.79     20631     64.67      7.01       225     13.71
05/21 14:00     20.61     20163     65.05      7.05       230      ----
05/21 15:00     20.32     19401     65.44      7.02       232     13.53
05/21 16:00     19.91     18332     65.86      7.07       242     13.53
05/21 17:00     19.51     17321     66.18      7.23       254     13.53
05/21 18:00     18.98     16030     66.31      7.39       261     13.42
05/21 19:00     18.52     14954     66.34      7.48       267     13.48
05/21 20:00     17.93     13628     66.34      7.52       275     13.48
05/21 21:00     17.44     12481     66.27      7.54       283     13.24
05/21 22:00     17.07     11655     66.15      7.61       289     12.95
05/21 23:00     16.76     10988     65.98      7.73       295     12.83